Time;durP1;ratioP1;P1;durP2;ratioP2;P2;SDS_P1;SDS_P2;PMS_P1;PMS_P2;Temp;Humidity;BMP_temperature;BMP_pressure;BME280_temperature;BME280_humidity;BME280_pressure;Samples;Min_cycle;Max_cycle;Signal;HPM_P1;HPM_P2
2021/03/24 00:01:15;;;;;;;57.53;40.37;;;;;;;4.92;77.82;101309.97;5023396;28;20204;-79
2021/03/24 00:03:41;;;;;;;59.53;39.87;;;;;;;4.89;78.07;101307.31;5025738;28;20204;-79
2021/03/24 00:06:07;;;;;;;58.60;41.83;;;;;;;4.88;77.94;101306.44;5018552;28;20243;-78
2021/03/24 00:08:33;;;;;;;59.97;41.03;;;;;;;4.95;77.59;101316.03;5016172;28;20729;-79
2021/03/24 00:10:59;;;;;;;60.57;40.77;;;;;;;4.99;77.83;101309.22;5014432;28;20208;-78
2021/03/24 00:13:26;;;;;;;59.73;40.83;;;;;;;5.00;77.79;101305.78;5013076;28;20253;-78
2021/03/24 00:15:52;;;;;;;63.07;41.50;;;;;;;5.05;77.73;101308.44;5015775;28;20230;-78
2021/03/24 00:18:19;;;;;;;60.10;40.03;;;;;;;4.97;77.91;101311.78;5014263;28;20730;-78
2021/03/24 00:20:45;;;;;;;58.30;41.17;;;;;;;4.96;78.17;101311.75;5015523;28;20204;-79
2021/03/24 00:23:12;;;;;;;56.37;40.00;;;;;;;4.85;78.59;101308.97;5015171;28;20209;-78
2021/03/24 00:25:39;;;;;;;56.40;38.10;;;;;;;4.88;78.36;101321.97;5016098;28;20220;-78
2021/03/24 00:28:06;;;;;;;59.10;39.77;;;;;;;4.90;77.90;101312.50;5022627;28;20868;-79
2021/03/24 00:30:35;;;;;;;58.57;41.30;;;;;;;4.91;77.72;101315.97;5020278;28;20232;-79
2021/03/24 00:33:01;;;;;;;53.67;37.30;;;;;;;4.90;77.40;101316.81;5012093;28;20208;-78
2021/03/24 00:35:27;;;;;;;57.57;39.03;;;;;;;4.87;77.23;101311.56;5015222;28;20232;-78
2021/03/24 00:37:54;;;;;;;58.13;40.50;;;;;;;4.75;77.26;101313.09;5011178;28;20233;-79
2021/03/24 00:40:23;;;;;;;62.13;40.23;;;;;;;4.68;77.56;101307.78;5016477;28;20223;-79
2021/03/24 00:42:49;;;;;;;55.50;39.73;;;;;;;4.63;77.86;101310.28;5009467;28;20203;-78
2021/03/24 00:45:15;;;;;;;61.07;40.30;;;;;;;4.67;77.52;101309.47;5013880;28;20289;-78
2021/03/24 00:47:42;;;;;;;57.40;40.40;;;;;;;4.67;77.83;101312.06;5015998;28;20195;-78
2021/03/24 00:50:11;;;;;;;59.83;41.13;;;;;;;4.51;78.19;101305.72;5015242;28;20212;-79
2021/03/24 00:52:37;;;;;;;64.03;41.33;;;;;;;4.49;78.21;101306.53;5014245;28;20688;-77
2021/03/24 00:55:04;;;;;;;59.63;39.73;;;;;;;4.38;77.78;101299.47;5023357;28;20239;-79
2021/03/24 00:57:29;;;;;;;61.63;40.80;;;;;;;4.29;78.55;101301.84;5016638;28;20596;-79
2021/03/24 00:59:55;;;;;;;63.23;42.97;;;;;;;4.27;78.70;101297.50;5013114;28;20200;-78
2021/03/24 01:02:21;;;;;;;63.43;41.10;;;;;;;4.23;79.13;101299.13;5013682;28;20650;-78
2021/03/24 01:04:48;;;;;;;60.70;40.90;;;;;;;4.26;79.02;101299.22;5012112;28;20240;-79
2021/03/24 01:07:16;;;;;;;70.00;43.40;;;;;;;4.20;78.90;101293.03;5015634;28;20240;-79
2021/03/24 01:09:42;;;;;;;64.70;40.10;;;;;;;4.16;79.52;101300.72;5016844;28;20203;-78
2021/03/24 01:12:09;;;;;;;64.77;39.43;;;;;;;4.26;78.12;101301.78;5012510;28;20732;-78
2021/03/24 01:14:36;;;;;;;65.00;40.60;;;;;;;4.13;78.60;101295.47;5014202;28;20207;-77
2021/03/24 01:17:02;;;;;;;60.67;41.23;;;;;;;4.10;78.23;101299.69;5013055;28;20208;-78
2021/03/24 01:19:28;;;;;;;59.23;40.40;;;;;;;4.05;78.11;101301.34;5017811;28;20214;-77
2021/03/24 01:21:55;;;;;;;61.07;40.90;;;;;;;4.02;78.24;101303.84;5014699;28;20218;-79
2021/03/24 01:24:21;;;;;;;62.87;39.87;;;;;;;3.95;78.48;101295.09;5016378;28;20204;-78
2021/03/24 01:26:47;;;;;;;66.20;40.60;;;;;;;3.91;77.74;101293.28;5018721;28;20211;-77
2021/03/24 01:31:58;;;;;;;62.93;38.60;;;;;;;3.90;77.84;101301.84;5023812;28;20598;-78
2021/03/24 01:34:24;;;;;;;64.23;40.10;;;;;;;3.90;77.90;101296.69;5031930;28;20214;-78
2021/03/24 01:36:50;;;;;;;67.77;41.30;;;;;;;3.90;77.95;101301.84;5029436;28;20343;-78
2021/03/24 01:39:17;;;;;;;65.53;39.60;;;;;;;3.87;77.99;101294.91;5030309;28;20225;-78
2021/03/24 01:41:43;;;;;;;57.13;37.43;;;;;;;3.83;77.98;101300.84;5032031;28;20229;-78
2021/03/24 01:44:08;;;;;;;62.03;42.70;;;;;;;3.82;78.47;101300.81;5034405;28;20548;-77
2021/03/24 01:46:41;;;;;;;66.47;40.00;;;;;;;3.83;78.41;101297.41;5032014;28;20198;-78
2021/03/24 01:49:12;;;;;;;70.37;42.73;;;;;;;3.82;78.49;101296.50;5037683;28;20205;-78
2021/03/24 01:51:41;;;;;;;66.23;41.50;;;;;;;3.80;78.81;101289.59;5040346;28;20268;-77
2021/03/24 01:54:10;;;;;;;61.17;39.13;;;;;;;3.84;77.77;101286.22;5032714;28;20260;-78
2021/03/24 01:56:39;;;;;;;60.93;40.53;;;;;;;3.80;77.82;101284.41;5040488;28;20202;-78
2021/03/24 01:59:05;;;;;;;68.13;41.33;;;;;;;3.71;78.86;101280.78;5038043;28;20219;-74
2021/03/24 02:01:32;;;;;;;74.87;46.53;;;;;;;3.77;78.82;101283.50;5037815;28;20223;-77
2021/03/24 02:03:58;;;;;;;67.27;44.43;;;;;;;3.76;79.41;101281.75;5033038;28;20198;-78
2021/03/24 02:06:31;;;;;;;72.97;42.63;;;;;;;3.79;79.43;101286.13;5033922;28;20680;-78
2021/03/24 02:09:06;;;;;;;80.67;48.80;;;;;;;3.84;80.87;101293.97;5042451;28;20573;-78
2021/03/24 02:11:36;;;;;;;79.07;47.03;;;;;;;3.90;80.61;101288.94;5039457;28;20228;-78
2021/03/24 02:14:09;;;;;;;71.47;46.13;;;;;;;3.98;81.70;101288.28;5033842;28;20249;-78
2021/03/24 02:16:39;;;;;;;74.30;47.00;;;;;;;4.04;81.89;101284.06;5036938;28;20196;-78
2021/03/24 02:19:28;;;;;;;68.10;46.40;;;;;;;4.04;81.71;101289.25;5041922;28;20212;-78
2021/03/24 02:21:54;;;;;;;66.03;46.27;;;;;;;4.02;81.93;101285.75;5042401;28;20575;-78
2021/03/24 02:24:32;;;;;;;70.53;45.50;;;;;;;4.01;81.22;101290.06;5040355;28;20260;-78
2021/03/24 02:27:19;;;;;;;75.77;46.87;;;;;;;4.04;80.90;101287.53;5043359;28;20278;-78
2021/03/24 02:29:50;;;;;;;71.90;45.30;;;;;;;4.04;81.36;101289.25;5027456;28;20224;-77
2021/03/24 02:32:18;;;;;;;70.20;46.10;;;;;;;4.08;81.67;101283.31;5044509;28;20206;-78
2021/03/24 02:34:45;;;;;;;71.63;47.30;;;;;;;4.12;81.32;101279.94;5026458;28;20209;-77
2021/03/24 02:37:13;;;;;;;69.80;47.03;;;;;;;4.18;81.63;101278.38;5044365;28;20670;-78
2021/03/24 02:39:41;;;;;;;78.93;47.77;;;;;;;4.30;82.12;101276.84;5036691;28;20558;-77
2021/03/24 02:42:10;;;;;;;83.10;50.03;;;;;;;4.37;82.13;101282.19;5044883;28;20203;-78
2021/03/24 02:44:39;;;;;;;84.23;50.63;;;;;;;4.43;82.67;101278.84;5035888;28;20584;-75
2021/03/24 02:47:07;;;;;;;83.40;49.83;;;;;;;4.49;82.64;101278.13;5044228;28;20214;-78
2021/03/24 02:49:34;;;;;;;91.07;51.60;;;;;;;4.50;83.14;101275.56;5032796;28;20592;-78
2021/03/24 02:52:01;;;;;;;87.67;51.90;;;;;;;4.53;83.34;101275.59;5042962;28;20208;-78
2021/03/24 02:54:31;;;;;;;84.23;51.20;;;;;;;4.59;83.56;101267.09;5040981;28;20210;-78
2021/03/24 02:56:57;;;;;;;85.67;50.30;;;;;;;4.65;83.63;101266.34;5037473;28;20619;-78
2021/03/24 02:59:24;;;;;;;90.67;51.87;;;;;;;4.71;83.20;101267.31;5041647;28;20223;-77
2021/03/24 03:01:58;;;;;;;86.17;49.93;;;;;;;4.74;82.94;101264.81;5041603;28;20265;-78
2021/03/24 03:04:27;;;;;;;79.17;48.87;;;;;;;4.75;82.95;101265.66;5026101;28;20667;-77
2021/03/24 03:06:58;;;;;;;88.03;52.63;;;;;;;4.74;83.04;101269.13;5036454;28;20211;-77
2021/03/24 03:09:33;;;;;;;82.23;48.87;;;;;;;4.81;82.75;101268.34;5041134;28;20692;-77
2021/03/24 03:12:05;;;;;;;88.47;51.43;;;;;;;4.85;82.55;101262.41;5020751;28;20198;-77
2021/03/24 03:14:39;;;;;;;92.23;51.97;;;;;;;4.87;82.33;101263.28;5024861;28;20213;-77
2021/03/24 03:17:11;;;;;;;87.40;52.03;;;;;;;4.86;82.78;101265.88;5029301;28;20235;-77
2021/03/24 03:19:41;;;;;;;94.43;54.47;;;;;;;4.87;82.13;101270.19;5024342;28;20214;-77
2021/03/24 03:22:15;;;;;;;93.97;52.40;;;;;;;4.91;82.38;101269.41;5029894;28;20209;-77
2021/03/24 03:24:47;;;;;;;91.80;54.27;;;;;;;4.92;82.43;101274.59;5032590;28;20207;-77
2021/03/24 03:27:16;;;;;;;93.30;54.37;;;;;;;4.97;82.51;101266.91;5034767;28;20203;-78
2021/03/24 03:29:43;;;;;;;84.53;50.87;;;;;;;4.97;82.48;101269.50;5032279;28;20742;-76
2021/03/24 03:32:14;;;;;;;103.83;56.80;;;;;;;4.93;82.36;101275.47;5026893;28;20580;-77
2021/03/24 03:34:44;;;;;;;98.20;56.57;;;;;;;4.96;82.20;101276.41;5015646;28;20675;-77
2021/03/24 03:37:10;;;;;;;87.13;52.50;;;;;;;5.05;81.91;101272.22;5034410;28;20224;-78
2021/03/24 03:39:36;;;;;;;92.27;55.10;;;;;;;5.06;81.89;101269.66;5025119;28;20782;-76
2021/03/24 03:42:04;;;;;;;88.47;52.13;;;;;;;5.10;82.29;101268.00;5030166;28;20206;-78
2021/03/24 03:44:32;;;;;;;92.63;53.53;;;;;;;5.06;81.86;101253.28;5033014;28;20212;-78
2021/03/24 03:47:05;;;;;;;88.63;53.67;;;;;;;5.06;81.86;101258.47;5030339;28;20207;-78
2021/03/24 03:49:32;;;;;;;92.10;53.40;;;;;;;5.02;81.95;101254.94;5033897;28;20204;-76
2021/03/24 03:52:10;;;;;;;98.93;55.43;;;;;;;5.05;82.01;101261.88;5027623;28;20222;-77
2021/03/24 03:54:39;;;;;;;93.37;54.00;;;;;;;5.06;81.83;101251.56;5032284;28;20270;-77
2021/03/24 03:57:10;;;;;;;97.97;55.27;;;;;;;5.12;81.80;101255.97;5035157;28;20554;-79
2021/03/24 03:59:41;;;;;;;94.40;54.73;;;;;;;5.06;82.02;101254.16;5033881;28;20259;-78
2021/03/24 04:02:13;;;;;;;87.07;52.30;;;;;;;5.09;82.31;101246.41;5032053;28;20209;-78
2021/03/24 04:04:45;;;;;;;91.23;53.50;;;;;;;5.11;81.72;101252.53;5025254;28;20198;-76
2021/03/24 04:07:18;;;;;;;89.83;53.83;;;;;;;5.16;81.64;101258.63;5030011;28;20595;-77
2021/03/24 04:09:46;;;;;;;87.50;51.67;;;;;;;5.19;81.66;101247.44;5029269;28;20220;-78
2021/03/24 04:12:14;;;;;;;89.13;53.87;;;;;;;5.19;81.77;101250.03;5032095;28;20202;-78
2021/03/24 04:14:42;;;;;;;90.37;53.33;;;;;;;5.21;81.71;101250.91;5025217;28;20202;-78
2021/03/24 04:17:10;;;;;;;92.57;54.10;;;;;;;5.18;81.30;101250.88;5036272;28;20209;-78
2021/03/24 04:19:43;;;;;;;91.73;54.37;;;;;;;5.15;81.27;101254.31;5039222;28;20222;-76
2021/03/24 04:22:12;;;;;;;90.43;54.67;;;;;;;5.16;81.23;101253.44;5041077;28;20200;-76
2021/03/24 04:24:42;;;;;;;92.83;53.53;;;;;;;5.18;81.29;101254.34;5029556;28;20202;-78
2021/03/24 04:27:12;;;;;;;91.73;54.67;;;;;;;5.11;81.62;101244.75;5028307;28;20211;-78
2021/03/24 04:29:43;;;;;;;84.00;53.67;;;;;;;5.18;81.11;101251.75;5031186;28;20329;-76
2021/03/24 04:32:11;;;;;;;80.97;51.23;;;;;;;5.20;81.16;101254.38;5037229;28;20569;-78
2021/03/24 04:34:37;;;;;;;87.23;52.63;;;;;;;5.12;80.82;101251.66;5026768;28;20263;-77
2021/03/24 04:37:11;;;;;;;84.03;52.13;;;;;;;5.13;80.57;101255.09;5033114;28;20662;-77
2021/03/24 04:39:41;;;;;;;87.40;52.30;;;;;;;5.14;80.65;101262.03;5026927;28;20217;-77
2021/03/24 04:42:12;;;;;;;87.47;53.00;;;;;;;5.12;80.84;101266.31;5034000;28;20214;-77
2021/03/24 04:44:42;;;;;;;80.03;49.57;;;;;;;5.05;80.76;101257.56;5027742;28;20194;-77
2021/03/24 04:47:13;;;;;;;82.60;49.63;;;;;;;4.95;80.45;101263.44;5033834;28;20674;-77
2021/03/24 04:49:45;;;;;;;83.70;49.60;;;;;;;4.90;80.50;101265.94;5035107;28;20210;-78
2021/03/24 04:52:12;;;;;;;82.33;49.27;;;;;;;4.87;80.04;101265.03;5034491;28;20214;-77
2021/03/24 04:54:43;;;;;;;76.83;47.67;;;;;;;4.80;79.80;101268.31;5026739;28;20191;-77
2021/03/24 04:57:14;;;;;;;79.50;48.23;;;;;;;4.68;79.60;101267.28;5034812;28;20291;-78
2021/03/24 04:59:43;;;;;;;79.47;48.40;;;;;;;4.57;79.96;101263.63;5034271;28;20239;-78
2021/03/24 05:02:13;;;;;;;77.20;46.93;;;;;;;4.55;80.53;101265.31;5038458;28;20569;-78
2021/03/24 05:04:43;;;;;;;77.33;47.77;;;;;;;4.47;80.14;101257.41;5034775;28;20199;-77
2021/03/24 05:07:16;;;;;;;83.27;47.10;;;;;;;4.41;80.15;101264.16;5038722;28;20197;-78
2021/03/24 05:09:43;;;;;;;73.20;46.17;;;;;;;4.43;79.73;101252.16;5027110;28;20221;-78
2021/03/24 05:12:15;;;;;;;75.50;46.47;;;;;;;4.40;79.85;101258.13;5035353;28;20206;-77
2021/03/24 05:14:46;;;;;;;77.30;46.53;;;;;;;4.41;79.67;101254.69;5029221;28;20258;-77
2021/03/24 05:17:16;;;;;;;75.97;46.70;;;;;;;4.40;79.84;101260.72;5039216;28;20222;-78
2021/03/24 05:19:44;;;;;;;74.87;46.30;;;;;;;4.39;79.60;101258.97;5035811;28;20226;-78
2021/03/24 05:22:20;;;;;;;74.43;45.40;;;;;;;4.35;79.76;101252.84;5039675;28;20209;-78
2021/03/24 05:24:48;;;;;;;75.53;46.60;;;;;;;4.33;79.35;101249.38;5029797;28;20207;-77
2021/03/24 05:27:18;;;;;;;71.03;45.37;;;;;;;4.34;79.05;101250.22;5034567;28;20224;-77
2021/03/24 05:29:48;;;;;;;76.63;44.90;;;;;;;4.18;79.48;101254.22;5022469;28;20228;-76
2021/03/24 05:32:18;;;;;;;72.80;46.33;;;;;;;4.18;79.68;101254.22;5040170;28;20206;-76
2021/03/24 05:34:49;;;;;;;74.70;44.77;;;;;;;4.16;79.99;101250.75;5022143;28;20681;-77
2021/03/24 05:37:15;;;;;;;76.20;46.70;;;;;;;4.22;79.31;101250.84;5041067;28;20266;-77
2021/03/24 05:39:43;;;;;;;70.83;46.40;;;;;;;4.22;79.78;101253.44;5030930;28;20693;-77
2021/03/24 05:42:37;;;;;;;74.83;43.27;;;;;;;4.20;79.57;101251.69;5036758;28;20211;-78
2021/03/24 05:45:16;;;;;;;72.13;43.73;;;;;;;4.17;79.56;101248.19;5025149;28;20199;-78
2021/03/24 05:48:05;;;;;;;71.23;43.20;;;;;;;4.18;79.75;101247.38;5045989;28;20602;-76
2021/03/24 05:50:46;;;;;;;74.23;44.47;;;;;;;4.19;79.44;101245.66;5030332;28;20233;-77
2021/03/24 05:53:27;;;;;;;73.93;44.10;;;;;;;4.21;79.46;101246.56;5044520;28;20285;-77
2021/03/24 05:56:03;;;;;;;69.40;42.77;;;;;;;4.25;79.80;101247.50;5031598;28;20251;-77
2021/03/24 05:58:43;;;;;;;72.70;44.07;;;;;;;4.23;79.92;101237.13;5042608;28;20219;-77
2021/03/24 06:01:15;;;;;;;68.60;42.03;;;;;;;4.26;79.19;101238.88;5033817;28;20355;-77
2021/03/24 06:04:03;;;;;;;72.00;42.50;;;;;;;4.24;79.49;101245.72;5042000;28;20206;-77
2021/03/24 06:07:02;;;;;;;82.13;44.40;;;;;;;4.29;79.36;101239.81;5034254;28;20199;-77
2021/03/24 06:09:59;;;;;;;66.63;41.97;;;;;;;4.26;79.39;101239.78;5034547;28;20545;-77
2021/03/24 06:12:49;;;;;;;73.67;41.57;;;;;;;4.37;79.32;101239.97;5042615;28;20200;-78
2021/03/24 06:15:38;;;;;;;66.80;40.37;;;;;;;4.33;79.51;101239.03;5029373;28;20226;-77
2021/03/24 06:18:18;;;;;;;65.93;39.73;;;;;;;4.33;79.08;101238.16;5038930;28;20221;-78
2021/03/24 06:20:51;;;;;;;66.73;41.50;;;;;;;4.36;79.80;101246.84;5023730;28;20229;-77
2021/03/24 06:23:49;;;;;;;67.77;40.50;;;;;;;4.40;79.75;101242.63;5047205;28;20194;-77
2021/03/24 06:26:31;;;;;;;66.07;41.33;;;;;;;4.47;80.12;101249.63;5034258;28;20215;-78
2021/03/24 06:29:04;;;;;;;64.17;38.23;;;;;;;4.47;79.25;101246.19;5034273;28;20607;-78
2021/03/24 06:31:46;;;;;;;71.23;42.33;;;;;;;4.52;79.75;101248.03;5038379;28;20241;-77
2021/03/24 06:34:48;;;;;;;67.10;40.10;;;;;;;4.55;79.78;101240.31;5044882;28;20724;-77
2021/03/24 06:37:31;;;;;;;65.33;39.83;;;;;;;4.61;79.67;101243.88;4983965;28;20212;-78
2021/03/24 06:40:25;;;;;;;64.60;39.03;;;;;;;4.70;78.44;101244.91;5024710;28;20234;-77
2021/03/24 06:43:01;;;;;;;63.63;40.47;;;;;;;4.82;79.02;101244.25;4976324;28;20203;-77
2021/03/24 06:45:51;;;;;;;65.07;40.10;;;;;;;4.85;79.10;101252.03;5027108;28;20226;-77
2021/03/24 06:48:46;;;;;;;66.77;39.00;;;;;;;4.89;79.50;101242.63;5029835;28;20186;-78
2021/03/24 06:51:45;;;;;;;63.30;38.90;;;;;;;4.97;79.95;101247.13;5022968;28;20731;-77
2021/03/24 06:55:01;;;;;;;60.93;37.17;;;;;;;5.06;79.73;101254.16;5022883;28;20207;-76
2021/03/24 06:57:59;;;;;;;63.30;39.43;;;;;;;5.11;80.00;101251.63;5025415;28;20206;-77
2021/03/24 07:01:02;;;;;;;60.27;37.47;;;;;;;5.11;78.24;101252.53;5022208;28;20715;-76
2021/03/24 07:04:05;;;;;;;60.80;36.43;;;;;;;5.28;77.87;101255.38;5023392;28;20199;-76
2021/03/24 07:06:49;;;;;;;66.10;39.00;;;;;;;5.38;77.00;101257.25;5027114;28;20194;-76
2021/03/24 07:09:26;;;;;;;68.50;39.07;;;;;;;5.52;78.93;101256.59;5025117;28;20196;-75
2021/03/24 07:12:03;;;;;;;59.60;37.93;;;;;;;5.65;77.36;101253.34;5025338;28;20198;-76
2021/03/24 07:14:54;;;;;;;60.10;37.43;;;;;;;5.81;76.86;101254.44;5024753;28;20198;-76
2021/03/24 07:17:43;;;;;;;62.63;38.77;;;;;;;5.89;76.45;101258.00;5025394;28;20224;-77
2021/03/24 07:20:29;;;;;;;60.23;38.33;;;;;;;5.94;76.44;101264.09;5021979;28;20222;-77
2021/03/24 07:23:06;;;;;;;59.00;37.87;;;;;;;5.97;74.27;101255.53;5026819;28;20215;-76
2021/03/24 07:25:50;;;;;;;63.93;37.57;;;;;;;5.94;72.96;101263.22;5023617;28;20206;-77
2021/03/24 07:28:41;;;;;;;59.73;38.50;;;;;;;5.97;73.64;101259.00;5024149;28;20627;-77
2021/03/24 07:31:24;;;;;;;59.90;37.00;;;;;;;6.00;73.54;101265.06;5023168;28;20241;-76
2021/03/24 07:33:58;;;;;;;61.30;38.70;;;;;;;6.08;73.75;101253.94;5026776;28;20675;-76
2021/03/24 07:36:42;;;;;;;56.37;36.40;;;;;;;6.19;73.29;101251.50;5027139;28;20211;-75
2021/03/24 07:39:25;;;;;;;57.50;36.97;;;;;;;6.23;74.30;101252.41;5024771;28;20244;-76
2021/03/24 07:42:16;;;;;;;52.43;36.20;;;;;;;6.23;72.72;101255.84;5027832;28;20205;-73
2021/03/24 07:44:55;;;;;;;53.23;34.37;;;;;;;6.33;73.10;101262.03;5021652;28;20202;-76
2021/03/24 07:47:36;;;;;;;59.50;37.37;;;;;;;6.32;72.09;101255.97;5027737;28;20673;-76
2021/03/24 07:50:10;;;;;;;54.23;34.90;;;;;;;6.40;71.81;101265.53;5025968;28;20227;-76
2021/03/24 07:52:48;;;;;;;55.67;35.90;;;;;;;6.51;71.23;101266.56;5030666;28;20202;-74
2021/03/24 07:55:17;;;;;;;56.83;35.40;;;;;;;6.56;71.34;101268.34;5023019;28;20207;-76
2021/03/24 07:57:54;;;;;;;55.67;35.80;;;;;;;6.70;71.34;101268.50;5029965;28;20683;-75
2021/03/24 08:00:25;;;;;;;51.17;34.20;;;;;;;6.78;70.67;101262.50;5023170;28;20776;-76
2021/03/24 08:02:57;;;;;;;56.90;35.33;;;;;;;6.85;71.54;101259.97;5026091;28;20256;-76
2021/03/24 08:05:51;;;;;;;60.37;36.57;;;;;;;6.95;71.15;101263.53;5023832;28;20248;-75
2021/03/24 08:08:24;;;;;;;55.23;34.23;;;;;;;6.99;70.49;101259.25;5022543;28;20648;-75
2021/03/24 08:11:01;;;;;;;57.30;36.67;;;;;;;7.07;70.85;101262.78;5023684;28;20225;-75
2021/03/24 08:13:36;;;;;;;54.90;34.87;;;;;;;7.09;70.62;101259.31;5024329;28;20286;-75
2021/03/24 08:16:15;;;;;;;54.80;35.90;;;;;;;7.11;70.74;101257.59;5022846;28;20249;-76
2021/03/24 08:18:56;;;;;;;51.90;34.27;;;;;;;7.18;70.05;101257.69;5027001;28;20213;-76
2021/03/24 08:21:32;;;;;;;62.97;35.27;;;;;;;7.24;70.12;101262.94;5023740;28;20225;-73
2021/03/24 08:24:18;;;;;;;50.43;35.00;;;;;;;7.29;70.19;101258.63;5022646;28;20633;-76
2021/03/24 08:26:48;;;;;;;49.40;33.50;;;;;;;7.38;69.99;101257.84;5020734;28;20733;-76
2021/03/24 08:29:25;;;;;;;52.57;34.20;;;;;;;7.43;69.08;101254.38;5025953;28;20206;-75
2021/03/24 08:32:41;;;;;;;46.60;33.37;;;;;;;7.44;68.96;101261.34;5026828;28;20227;-76
2021/03/24 08:35:27;;;;;;;54.90;35.53;;;;;;;7.54;68.36;101255.34;5037954;28;20220;-76
2021/03/24 08:38:12;;;;;;;56.77;36.37;;;;;;;7.66;68.73;101251.09;5038132;28;20197;-75
2021/03/24 08:41:20;;;;;;;57.73;36.37;;;;;;;7.74;68.61;101252.88;5033523;28;20244;-76
2021/03/24 08:43:57;;;;;;;53.37;35.07;;;;;;;7.86;67.77;101259.88;5023635;28;20557;-75
2021/03/24 08:46:28;;;;;;;51.23;33.97;;;;;;;7.94;67.50;101245.16;5026537;28;20225;-75
2021/03/24 08:48:58;;;;;;;49.97;33.03;;;;;;;7.90;67.38;101251.22;5021232;28;20278;-75
2021/03/24 08:51:56;;;;;;;50.93;33.60;;;;;;;8.01;67.91;101253.88;5025055;28;20233;-75
2021/03/24 08:54:53;;;;;;;55.63;34.53;;;;;;;8.07;67.20;101250.44;5026883;28;20261;-75
2021/03/24 08:57:36;;;;;;;53.73;33.63;;;;;;;8.14;66.84;101242.66;5024417;28;20207;-76
2021/03/24 09:00:13;;;;;;;47.30;32.83;;;;;;;8.25;66.65;101249.66;5021913;28;20234;-73
2021/03/24 09:02:52;;;;;;;51.37;34.40;;;;;;;8.30;66.92;101240.97;5061491;22;20257;-77
2021/03/24 09:05:27;;;;;;;52.37;34.03;;;;;;;8.42;66.78;101248.00;5050148;28;20208;-77
2021/03/24 09:08:19;;;;;;;49.17;33.00;;;;;;;8.71;67.86;101247.19;5048006;28;20700;-77
2021/03/24 09:10:52;;;;;;;53.60;33.77;;;;;;;8.84;66.33;101246.38;5047102;28;20624;-77
2021/03/24 09:13:26;;;;;;;50.33;31.57;;;;;;;8.76;65.12;101240.28;5058034;28;20738;-77
2021/03/24 09:16:48;;;;;;;52.43;34.97;;;;;;;8.67;65.77;101228.09;5052677;28;20692;-77
2021/03/24 09:19:22;;;;;;;49.33;33.17;;;;;;;8.72;65.18;101236.81;5048419;28;20740;-77
2021/03/24 09:21:59;;;;;;;50.07;33.53;;;;;;;8.87;66.08;101232.47;5062857;28;20233;-77
2021/03/24 09:24:51;;;;;;;50.63;33.60;;;;;;;8.90;64.79;101230.75;5044154;28;20264;-77
2021/03/24 09:27:31;;;;;;;56.17;34.53;;;;;;;9.05;65.23;101239.44;5046385;28;20251;-78
2021/03/24 09:30:26;;;;;;;43.57;32.40;;;;;;;9.10;65.12;101240.31;5042336;28;20661;-78
2021/03/24 09:33:03;;;;;;;48.33;32.43;;;;;;;8.96;63.91;101229.88;5052161;28;20229;-77
2021/03/24 09:35:38;;;;;;;55.57;33.00;;;;;;;9.09;65.14;101234.19;5059662;28;20574;-77
2021/03/24 09:38:08;;;;;;;53.70;34.47;;;;;;;9.20;65.09;101238.56;5053031;28;20697;-77
2021/03/24 09:40:40;;;;;;;46.67;33.47;;;;;;;9.15;63.51;101234.19;5048991;28;20197;-76
2021/03/24 09:43:19;;;;;;;49.23;34.10;;;;;;;9.25;64.21;101229.00;5050143;28;20807;-77
2021/03/24 09:45:55;;;;;;;54.17;34.53;;;;;;;9.38;64.11;101232.47;5062823;28;20597;-77
2021/03/24 09:48:21;;;;;;;48.40;34.73;;;;;;;9.43;63.25;101222.91;5062242;28;20661;-77
2021/03/24 09:51:03;;;;;;;49.97;32.50;;;;;;;9.55;63.87;101225.47;5058912;28;20254;-77
2021/03/24 09:53:32;;;;;;;48.93;34.90;;;;;;;9.64;63.46;101233.28;5055588;28;20225;-78
2021/03/24 09:56:03;;;;;;;54.03;33.37;;;;;;;9.60;63.79;101225.47;5048267;28;20198;-76
2021/03/24 09:58:59;;;;;;;55.10;35.13;;;;;;;9.68;64.08;101226.34;5047161;28;20326;-77
2021/03/24 10:01:35;;;;;;;53.23;35.23;;;;;;;9.62;63.76;101215.91;5054850;28;20221;-77
2021/03/24 10:04:11;;;;;;;51.83;33.77;;;;;;;9.56;62.25;101221.16;5061454;28;20297;-78
2021/03/24 10:06:49;;;;;;;52.07;34.70;;;;;;;9.63;63.50;101220.25;5056368;28;20219;-77
2021/03/24 10:09:21;;;;;;;51.60;34.07;;;;;;;9.70;63.29;101224.59;5067428;28;20200;-77
2021/03/24 10:11:52;;;;;;;49.93;35.03;;;;;;;9.68;62.87;101219.38;5035409;28;20216;-77
2021/03/24 10:14:32;;;;;;;51.20;34.37;;;;;;;9.64;61.96;101219.38;5070663;28;20204;-76
2021/03/24 10:17:00;;;;;;;53.33;35.47;;;;;;;9.73;63.56;101203.69;5035800;28;20586;-77
2021/03/24 10:19:32;;;;;;;53.43;35.30;;;;;;;9.85;62.82;101211.50;5059182;28;20229;-77
2021/03/24 10:22:07;;;;;;;58.20;35.83;;;;;;;10.01;62.96;101211.44;5044144;28;20226;-78
2021/03/24 10:24:41;;;;;;;48.20;34.00;;;;;;;10.00;61.85;101204.50;5050406;28;20793;-77
2021/03/24 10:27:10;;;;;;;53.50;34.10;;;;;;;9.98;62.27;101208.84;5044176;28;20219;-77
2021/03/24 10:29:40;;;;;;;51.30;34.67;;;;;;;9.98;62.54;101203.63;5046482;28;20201;-77
2021/03/24 10:32:19;;;;;;;47.47;34.03;;;;;;;10.10;61.91;101200.97;5045363;28;20725;-77
2021/03/24 10:34:47;;;;;;;47.07;33.43;;;;;;;10.34;62.03;101200.84;5050963;28;20208;-78
2021/03/24 10:37:20;;;;;;;46.67;34.83;;;;;;;10.46;61.81;101194.69;5044705;28;20213;-77
2021/03/24 10:39:55;;;;;;;49.50;34.00;;;;;;;10.27;59.37;101185.22;5050531;28;20231;-77
2021/03/24 10:42:28;;;;;;;51.30;33.53;;;;;;;10.38;60.82;101193.88;5044287;28;20641;-77
2021/03/24 10:45:01;;;;;;;51.20;33.17;;;;;;;10.48;60.25;101184.25;5051391;28;20193;-77
2021/03/24 10:47:33;;;;;;;50.33;33.97;;;;;;;10.60;60.95;101192.00;5043115;28;20213;-77
2021/03/24 10:50:21;;;;;;;46.93;32.63;;;;;;;10.53;60.57;101185.97;5049537;28;20196;-77
2021/03/24 10:53:04;;;;;;;53.20;34.53;;;;;;;10.61;60.56;101177.22;5046853;28;20224;-77
2021/03/24 10:55:32;;;;;;;51.17;34.80;;;;;;;10.65;60.38;101186.75;5046737;28;20209;-77
2021/03/24 10:58:06;;;;;;;50.23;33.73;;;;;;;10.62;59.46;101190.25;5043977;28;20206;-77
2021/03/24 11:00:36;;;;;;;54.07;34.40;;;;;;;10.80;60.42;101177.94;5050033;28;20200;-77
2021/03/24 11:03:14;;;;;;;51.03;34.90;;;;;;;10.99;59.48;101181.25;5050415;28;20237;-77
2021/03/24 11:05:44;;;;;;;48.77;33.73;;;;;;;11.05;58.18;101166.38;5064610;28;20215;-77
2021/03/24 11:08:27;;;;;;;50.67;33.40;;;;;;;11.31;58.96;101173.13;5068656;28;20208;-77
2021/03/24 11:10:58;;;;;;;50.30;33.77;;;;;;;11.41;58.13;101168.66;5057101;28;20272;-77
2021/03/24 11:13:31;;;;;;;47.63;35.43;;;;;;;11.29;58.88;101165.28;5054487;28;20301;-76
2021/03/24 11:16:15;;;;;;;44.63;32.57;;;;;;;11.56;57.48;101167.66;5052297;28;20210;-77
2021/03/24 11:18:47;;;;;;;48.30;34.43;;;;;;;11.68;57.52;101164.88;5057602;28;20220;-77
2021/03/24 11:21:31;;;;;;;51.30;33.13;;;;;;;11.77;57.35;101161.28;5069672;28;20267;-77
2021/03/24 11:24:08;;;;;;;45.40;32.03;;;;;;;11.62;56.18;101162.34;5062232;28;20233;-77
2021/03/24 11:26:44;;;;;;;46.33;32.30;;;;;;;11.79;57.58;101151.66;5052319;28;20211;-77
2021/03/24 11:29:14;;;;;;;41.87;32.20;;;;;;;12.27;56.96;101150.19;5066697;28;20205;-77
2021/03/24 11:31:54;;;;;;;44.73;33.20;;;;;;;11.72;56.76;101149.13;5079187;28;20193;-76
2021/03/24 11:34:25;;;;;;;46.97;32.30;;;;;;;11.94;57.37;101143.66;5071703;28;20206;-77
2021/03/24 11:36:58;;;;;;;40.83;33.13;;;;;;;12.32;56.71;101137.88;5045100;28;20206;-76
2021/03/24 11:39:28;;;;;;;38.13;30.57;;;;;;;12.96;55.11;101134.22;5046907;28;20229;-77
2021/03/24 11:42:08;;;;;;;45.27;32.10;;;;;;;13.10;50.83;101138.34;5046630;28;20225;-75
2021/03/24 11:44:35;;;;;;;36.97;30.87;;;;;;;13.75;50.91;101117.88;5059125;28;20198;-76
2021/03/24 11:47:10;;;;;;;50.77;31.90;;;;;;;14.30;50.59;101129.78;5043576;28;20573;-78
2021/03/24 11:49:45;;;;;;;39.63;29.70;;;;;;;16.01;47.77;101123.50;5061215;28;20194;-76
2021/03/24 11:52:34;;;;;;;32.80;29.13;;;;;;;16.59;43.49;101118.16;5044114;28;20591;-81
2021/03/24 11:55:06;;;;;;;33.97;28.73;;;;;;;17.14;42.10;101115.44;5053984;28;20204;-76